CZVL

Edmonton / Villeneuve Airport

Edmonton, Alberta, Canada
METAR CZVL 191700Z AUTO 14013G18KT 9SM -SN BKN023 BKN034 OVC075 M14/M17 A2988 RMK PRESFR SLP176
Observed Flight Rules
Jan-19 @ 17:00 UTC (14 minutes ago) Marginal Visual Flight Rules
Wind Visibility Clouds Conditions
140° at 13 knots
 Gusting to 18 knots
9 miles
  • Broken at 2,300' AGL
  • Broken at 3,400' AGL
  • Overcast at 7,500' AGL
  • Light Snow
Temperatures Readings
Current -14°C / 7°F
Dewpoint -17°C / 1°F
Humidity 78%
Altimeter 29.88" Hg
Pressure 1017.6 hPa
Elevation 686
METAR CZVL 191700Z AUTO 14013G18KT 9SM -SN BKN023 BKN034 OVC075 M14/M17 A2988 RMK PRESFR SLP176
Observed Flight Rules
Jan-19 @ 17:00 UTC
(14 minutes ago)
MVFR
Wind Visibility
140° at 13 knots
 Gusting to 18 knots
9 miles
Clouds
  • Broken at 2,300' AGL
  • Broken at 3,400' AGL
  • Overcast at 7,500' AGL
Conditions
  • Light Snow
Temperature Dewpoint
-14°C / 7°F -17°C / 1°F
Humidity Altimeter Pressure
78% 29.88" Hg 1017.6 hPa